createdAt,value
2022-12-25T00:01:46.653Z,3.17
2022-12-25T00:04:14.353Z,2.90
2022-12-25T00:06:42.124Z,3.83
2022-12-25T00:09:10.943Z,3.50
2022-12-25T00:11:39.260Z,3.43
2022-12-25T00:14:06.807Z,3.50
2022-12-25T00:16:34.379Z,3.40
2022-12-25T00:19:02.092Z,3.20
2022-12-25T00:21:30.168Z,3.23
2022-12-25T00:23:59.260Z,3.73
2022-12-25T00:26:29.289Z,3.77
2022-12-25T00:28:58.707Z,4.00
2022-12-25T00:31:27.350Z,3.80
2022-12-25T00:33:54.942Z,4.13
2022-12-25T00:36:24.421Z,3.80
2022-12-25T00:38:52.185Z,3.40
2022-12-25T00:41:42.925Z,3.73
2022-12-25T00:44:13.961Z,4.07
2022-12-25T00:46:42.608Z,3.37
2022-12-25T00:49:10.828Z,3.67
2022-12-25T00:51:38.364Z,3.83
2022-12-25T00:54:06.316Z,3.53
2022-12-25T00:56:33.861Z,3.13
2022-12-25T00:59:01.564Z,3.23
2022-12-25T01:01:30.717Z,3.70
2022-12-25T01:03:58.506Z,3.20
2022-12-25T01:06:26.386Z,3.67
2022-12-25T01:09:10.994Z,3.50
2022-12-25T01:11:38.739Z,3.17
2022-12-25T01:14:06.346Z,3.20
2022-12-25T01:16:35.324Z,3.10
2022-12-25T01:19:03.111Z,3.33
2022-12-25T01:21:31.637Z,3.67
2022-12-25T01:23:59.378Z,2.53
2022-12-25T01:26:28.404Z,3.60
2022-12-25T01:28:56.550Z,3.47
2022-12-25T01:31:25.487Z,3.40
2022-12-25T01:33:54.490Z,3.50
2022-12-25T01:36:23.915Z,3.77
2022-12-25T01:38:52.352Z,3.73
2022-12-25T01:41:22.466Z,3.33
2022-12-25T01:44:03.353Z,3.13
2022-12-25T01:46:32.227Z,3.00
2022-12-25T01:49:06.344Z,3.70
2022-12-25T01:51:40.140Z,2.90
2022-12-25T01:54:12.880Z,3.40
2022-12-25T01:56:43.369Z,3.97
2022-12-25T01:59:13.130Z,3.87
2022-12-25T02:01:41.305Z,3.37
2022-12-25T02:04:18.646Z,3.73
2022-12-25T02:06:47.769Z,3.23
2022-12-25T02:09:16.329Z,3.10
2022-12-25T02:11:59.065Z,3.37
2022-12-25T02:14:31.844Z,4.10
2022-12-25T02:17:08.217Z,3.77
2022-12-25T02:19:59.480Z,3.40
2022-12-25T02:22:38.426Z,4.07
2022-12-25T02:25:23.463Z,3.30
2022-12-25T02:28:08.109Z,3.57
2022-12-25T02:30:41.686Z,3.23
2022-12-25T02:33:33.222Z,3.37
2022-12-25T02:36:05.966Z,4.03
2022-12-25T02:38:39.077Z,3.93
2022-12-25T02:41:13.946Z,3.70
2022-12-25T02:44:02.918Z,3.93
2022-12-25T02:46:50.204Z,3.60
2022-12-25T02:49:40.690Z,3.23
2022-12-25T02:52:29.097Z,3.93
2022-12-25T02:55:19.774Z,4.10
2022-12-25T02:58:09.172Z,4.17
2022-12-25T03:01:00.427Z,3.30
2022-12-25T03:03:49.036Z,4.00
2022-12-25T03:06:38.097Z,4.00
2022-12-25T03:09:22.886Z,3.63
2022-12-25T03:11:57.891Z,3.27
2022-12-25T03:14:43.466Z,3.40
2022-12-25T03:17:12.674Z,3.20
2022-12-25T03:20:00.035Z,3.20
2022-12-25T03:22:45.022Z,4.07
2022-12-25T03:25:30.590Z,3.67
2022-12-25T03:27:59.278Z,3.30
2022-12-25T03:30:52.007Z,3.90
2022-12-25T03:33:45.024Z,2.73
2022-12-25T03:36:18.989Z,3.70
2022-12-25T03:39:22.783Z,3.30
2022-12-25T03:42:13.654Z,2.97
2022-12-25T03:45:07.834Z,3.17
2022-12-25T03:47:57.253Z,3.53
2022-12-25T03:50:51.296Z,3.67
2022-12-25T03:53:43.708Z,3.53
2022-12-25T03:56:31.066Z,3.93
2022-12-25T03:59:23.141Z,3.10
2022-12-25T04:02:09.683Z,3.10
2022-12-25T04:04:55.204Z,2.97
2022-12-25T04:07:41.739Z,3.20
2022-12-25T04:10:28.044Z,3.30
2022-12-25T04:13:13.718Z,3.80
2022-12-25T04:15:59.219Z,3.70
2022-12-25T04:18:44.478Z,3.13
2022-12-25T04:21:29.620Z,3.33
2022-12-25T04:24:16.449Z,3.37
2022-12-25T04:27:02.179Z,3.70
2022-12-25T04:29:47.419Z,4.10
2022-12-25T04:32:32.829Z,4.10
2022-12-25T04:35:18.290Z,3.43
2022-12-25T04:37:46.107Z,3.97
2022-12-25T04:40:15.543Z,3.27
2022-12-25T04:42:43.148Z,3.37
2022-12-25T04:45:12.032Z,3.10
2022-12-25T04:47:39.596Z,3.40
2022-12-25T04:50:08.982Z,3.77
2022-12-25T04:52:37.656Z,3.30
2022-12-25T04:55:06.440Z,3.50
2022-12-25T04:57:36.006Z,3.67
2022-12-25T05:00:04.139Z,3.80
2022-12-25T05:02:34.914Z,3.17
2022-12-25T05:05:03.355Z,2.60
2022-12-25T05:07:31.113Z,3.20
2022-12-25T05:09:58.667Z,3.23
2022-12-25T05:12:28.480Z,3.23
2022-12-25T05:14:57.603Z,3.20
2022-12-25T05:17:25.190Z,3.43
2022-12-25T05:19:52.901Z,3.50
2022-12-25T05:22:20.615Z,3.40
2022-12-25T05:24:48.286Z,3.30
2022-12-25T05:27:15.956Z,3.33
2022-12-25T05:29:44.097Z,3.00
2022-12-25T05:32:13.678Z,3.27
2022-12-25T05:34:41.334Z,3.60
2022-12-25T05:37:08.977Z,3.37
2022-12-25T05:39:36.803Z,3.27
2022-12-25T05:42:04.711Z,3.33
2022-12-25T05:44:32.298Z,3.70
2022-12-25T05:46:59.915Z,2.50
2022-12-25T05:49:29.507Z,2.83
2022-12-25T05:51:57.059Z,2.80
2022-12-25T05:54:24.617Z,3.43
2022-12-25T05:56:52.303Z,2.80
2022-12-25T05:59:19.933Z,3.30
2022-12-25T06:01:48.035Z,3.30
2022-12-25T06:04:16.008Z,2.60
2022-12-25T06:06:44.953Z,3.67
2022-12-25T06:09:13.564Z,2.60
2022-12-25T06:11:41.712Z,2.60
2022-12-25T06:14:12.471Z,3.43
2022-12-25T06:16:40.250Z,3.07
2022-12-25T06:19:08.350Z,3.67
2022-12-25T06:21:36.079Z,2.90
2022-12-25T06:24:05.588Z,2.87
2022-12-25T06:26:33.939Z,2.93
2022-12-25T06:29:01.578Z,3.17
2022-12-25T06:31:29.347Z,2.93
2022-12-25T06:33:57.313Z,2.83
2022-12-25T06:36:26.985Z,2.80
2022-12-25T06:38:54.909Z,3.43
2022-12-25T06:41:25.946Z,2.87
2022-12-25T06:43:55.893Z,2.53
2022-12-25T06:46:25.455Z,2.53
2022-12-25T06:48:53.157Z,3.20
2022-12-25T06:51:23.344Z,2.37
2022-12-25T06:53:52.848Z,3.00
2022-12-25T06:56:24.154Z,3.53
2022-12-25T06:58:55.327Z,3.73
2022-12-25T07:01:26.100Z,3.70
2022-12-25T07:03:57.209Z,3.67
2022-12-25T07:06:25.075Z,3.57
2022-12-25T07:08:52.990Z,3.37
2022-12-25T07:11:21.090Z,2.77
2022-12-25T07:13:49.053Z,3.97
2022-12-25T07:16:18.154Z,3.40
2022-12-25T07:18:45.751Z,3.07
2022-12-25T07:21:15.707Z,3.30
2022-12-25T07:23:43.978Z,3.43
2022-12-25T07:26:14.009Z,3.07
2022-12-25T07:28:42.145Z,3.40
2022-12-25T07:31:12.459Z,3.50
2022-12-25T07:33:42.228Z,2.87
2022-12-25T07:36:13.063Z,3.73
2022-12-25T07:38:41.119Z,2.93
2022-12-25T07:41:09.163Z,2.70
2022-12-25T07:43:36.877Z,3.47
2022-12-25T07:46:04.933Z,2.67
2022-12-25T07:48:32.900Z,2.90
2022-12-25T07:51:03.706Z,3.23
2022-12-25T07:53:31.291Z,3.37
2022-12-25T07:56:00.702Z,3.87
2022-12-25T07:58:28.705Z,4.40
2022-12-25T08:00:56.772Z,3.57
2022-12-25T08:03:24.481Z,3.53
2022-12-25T08:05:52.281Z,3.43
2022-12-25T08:08:21.298Z,4.47
2022-12-25T08:10:49.205Z,3.80
2022-12-25T08:13:16.913Z,3.67
2022-12-25T08:15:44.562Z,3.33
2022-12-25T08:18:12.139Z,3.47
2022-12-25T08:20:39.715Z,3.83
2022-12-25T08:23:07.675Z,3.70
2022-12-25T08:25:36.577Z,3.77
2022-12-25T08:28:04.316Z,3.40
2022-12-25T08:30:31.958Z,3.87
2022-12-25T08:32:59.566Z,3.40
2022-12-25T08:35:27.154Z,4.27
2022-12-25T08:37:54.762Z,4.13
2022-12-25T08:40:22.573Z,3.57
2022-12-25T08:42:51.480Z,3.47
2022-12-25T08:45:19.126Z,3.77
2022-12-25T08:47:46.801Z,3.90
2022-12-25T08:50:14.336Z,4.10
2022-12-25T08:52:42.028Z,3.97
2022-12-25T08:55:10.101Z,4.50
2022-12-25T08:57:37.663Z,3.93
2022-12-25T09:00:08.391Z,4.97
2022-12-25T09:02:36.074Z,4.17
2022-12-25T09:05:03.799Z,3.50
2022-12-25T09:07:31.348Z,2.83
2022-12-25T09:09:58.961Z,2.87
2022-12-25T09:12:26.558Z,3.00
2022-12-25T09:14:54.155Z,3.73
2022-12-25T09:17:23.163Z,3.93
2022-12-25T09:19:50.641Z,3.00
2022-12-25T09:22:18.191Z,3.13
2022-12-25T09:24:45.706Z,3.33
2022-12-25T09:27:13.276Z,3.40
2022-12-25T09:29:41.012Z,3.40
2022-12-25T09:32:08.688Z,3.23
2022-12-25T09:34:37.821Z,2.77
2022-12-25T09:37:05.503Z,3.00
2022-12-25T09:39:33.091Z,3.30
2022-12-25T09:42:03.136Z,3.47
2022-12-25T09:44:34.824Z,3.03
2022-12-25T09:47:06.183Z,3.03
2022-12-25T09:49:39.642Z,3.27
2022-12-25T09:52:18.300Z,3.90
2022-12-25T09:54:54.153Z,3.37
2022-12-25T09:57:21.850Z,3.00
2022-12-25T09:59:49.541Z,3.77
2022-12-25T10:02:57.647Z,3.33
2022-12-25T10:05:45.481Z,3.83
2022-12-25T10:08:23.609Z,4.50
2022-12-25T10:10:54.054Z,4.27
2022-12-25T10:13:45.645Z,4.10
2022-12-25T10:16:21.499Z,4.33
2022-12-25T10:19:00.123Z,3.67
2022-12-25T10:21:29.581Z,5.10
2022-12-25T10:24:07.796Z,4.00
2022-12-25T10:26:36.314Z,4.60
2022-12-25T10:29:13.384Z,3.80
2022-12-25T10:31:42.103Z,4.00
2022-12-25T10:34:13.810Z,4.27
2022-12-25T10:36:45.338Z,4.13
2022-12-25T10:39:17.221Z,3.63
2022-12-25T10:42:03.272Z,4.53
2022-12-25T10:44:30.996Z,3.90
2022-12-25T10:47:00.495Z,3.50
2022-12-25T10:49:31.546Z,4.17
2022-12-25T10:52:01.421Z,4.07
2022-12-25T10:54:31.938Z,4.93
2022-12-25T10:57:02.281Z,4.07
2022-12-25T10:59:32.302Z,4.27
2022-12-25T11:02:11.793Z,4.47
2022-12-25T11:04:39.670Z,3.33
2022-12-25T11:07:15.017Z,3.40
2022-12-25T11:09:50.668Z,3.93
2022-12-25T11:12:20.534Z,4.60
2022-12-25T11:14:55.106Z,4.30
2022-12-25T11:17:24.973Z,8.90
2022-12-25T11:19:54.021Z,10.57
2022-12-25T11:22:22.976Z,4.63
2022-12-25T11:24:50.646Z,4.33
2022-12-25T11:27:27.934Z,3.97
2022-12-25T11:29:59.756Z,4.20
2022-12-25T11:32:32.228Z,4.07
2022-12-25T11:35:02.327Z,3.80
2022-12-25T11:37:38.887Z,4.40
2022-12-25T11:40:08.115Z,3.73
2022-12-25T11:42:38.743Z,4.37
2022-12-25T11:45:13.948Z,4.57
2022-12-25T11:47:46.220Z,3.60
2022-12-25T11:50:23.577Z,3.77
2022-12-25T11:52:53.689Z,4.10
2022-12-25T11:55:30.068Z,4.20
2022-12-25T11:58:02.229Z,3.83
2022-12-25T12:00:31.992Z,3.53
2022-12-25T12:03:05.032Z,3.30
2022-12-25T12:05:39.810Z,3.17
2022-12-25T12:08:11.031Z,3.60
2022-12-25T12:10:52.204Z,2.97
2022-12-25T12:13:32.105Z,3.70
2022-12-25T12:15:59.744Z,4.30
2022-12-25T12:18:32.662Z,3.20
2022-12-25T12:21:02.272Z,4.03
2022-12-25T12:23:35.146Z,3.73
2022-12-25T12:26:03.537Z,3.80
2022-12-25T12:28:40.399Z,3.77
2022-12-25T12:31:09.415Z,4.60
2022-12-25T12:33:40.979Z,4.20
2022-12-25T12:36:13.908Z,3.83
2022-12-25T12:38:45.079Z,4.03
2022-12-25T12:41:14.626Z,3.87
2022-12-25T12:43:45.902Z,4.87
2022-12-25T12:46:22.994Z,4.67
2022-12-25T12:49:10.060Z,4.60
2022-12-25T12:51:39.282Z,3.90
2022-12-25T12:54:20.562Z,4.63
2022-12-25T12:57:02.293Z,4.37
2022-12-25T12:59:39.613Z,4.90
2022-12-25T13:02:34.328Z,4.70
2022-12-25T13:05:05.008Z,4.97
2022-12-25T13:07:45.006Z,4.83
2022-12-25T13:10:24.622Z,5.63
2022-12-25T13:12:55.165Z,6.07
2022-12-25T13:15:25.686Z,5.93
2022-12-25T13:17:53.478Z,5.57
2022-12-25T13:20:25.736Z,5.17
2022-12-25T13:23:02.723Z,5.13
2022-12-25T13:25:31.753Z,5.47
2022-12-25T13:27:59.665Z,4.93
2022-12-25T13:30:27.900Z,6.47
2022-12-25T13:32:57.022Z,5.23
2022-12-25T13:35:25.111Z,6.00
2022-12-25T13:37:54.772Z,5.83
2022-12-25T13:40:26.395Z,5.70
2022-12-25T13:42:58.864Z,4.80
2022-12-25T13:45:29.534Z,5.13
2022-12-25T13:47:57.713Z,4.93
2022-12-25T13:50:27.619Z,5.83
2022-12-25T13:52:56.925Z,5.77
2022-12-25T13:55:26.510Z,5.07
2022-12-25T13:57:57.793Z,4.33
2022-12-25T14:00:31.564Z,5.53
2022-12-25T14:02:59.922Z,4.87
2022-12-25T14:05:36.141Z,5.67
2022-12-25T14:08:16.081Z,4.87
2022-12-25T14:10:49.250Z,5.17
2022-12-25T14:13:21.893Z,4.97
2022-12-25T14:15:50.451Z,5.70
2022-12-25T14:18:20.040Z,5.47
2022-12-25T14:20:59.614Z,5.77
2022-12-25T14:23:28.319Z,4.97
2022-12-25T14:25:56.233Z,4.73
2022-12-25T14:28:32.320Z,5.37
2022-12-25T14:31:01.212Z,4.30
2022-12-25T14:33:31.153Z,5.33
2022-12-25T14:36:00.049Z,4.97
2022-12-25T14:38:32.640Z,5.07
2022-12-25T14:41:02.538Z,6.37
2022-12-25T14:43:34.488Z,4.93
2022-12-25T14:46:03.983Z,5.83
2022-12-25T14:48:33.768Z,6.03
2022-12-25T14:51:05.476Z,4.67
2022-12-25T14:53:37.223Z,5.13
2022-12-25T14:56:06.493Z,4.77
2022-12-25T14:58:41.312Z,5.60
2022-12-25T15:01:19.787Z,5.80
2022-12-25T15:03:49.076Z,5.20
2022-12-25T15:06:20.520Z,6.37
2022-12-25T15:08:57.323Z,5.50
2022-12-25T15:11:25.112Z,5.67
2022-12-25T15:13:54.217Z,7.73
2022-12-25T15:16:24.367Z,4.53
2022-12-25T15:18:53.408Z,6.53
2022-12-25T15:21:26.783Z,5.53
2022-12-25T15:23:55.319Z,4.80
2022-12-25T15:26:23.255Z,5.37
2022-12-25T15:28:51.008Z,5.73
2022-12-25T15:31:23.055Z,5.47
2022-12-25T15:33:50.913Z,5.40
2022-12-25T15:36:18.607Z,5.40
2022-12-25T15:38:46.362Z,5.50
2022-12-25T15:41:36.628Z,5.70
2022-12-25T15:44:05.972Z,5.20
2022-12-25T15:46:35.806Z,4.57
2022-12-25T15:49:03.595Z,6.43
2022-12-25T15:51:31.545Z,5.63
2022-12-25T15:53:59.719Z,6.03
2022-12-25T15:56:27.679Z,6.03
2022-12-25T15:58:55.242Z,5.67
2022-12-25T16:01:22.971Z,5.23
2022-12-25T16:03:52.096Z,6.03
2022-12-25T16:06:19.940Z,5.07
2022-12-25T16:08:47.530Z,6.43
2022-12-25T16:11:15.107Z,5.27
2022-12-25T16:13:42.696Z,5.77
2022-12-25T16:16:10.687Z,5.37
2022-12-25T16:18:43.333Z,6.23
2022-12-25T16:21:18.230Z,6.23
2022-12-25T16:23:46.255Z,6.30
2022-12-25T16:26:13.935Z,6.40
2022-12-25T16:28:41.414Z,6.23
2022-12-25T16:31:09.212Z,6.73
2022-12-25T16:33:36.689Z,6.00
2022-12-25T16:36:04.517Z,5.57
2022-12-25T16:38:34.110Z,5.40
2022-12-25T16:41:02.882Z,5.20
2022-12-25T16:43:30.398Z,6.13
2022-12-25T16:45:58.177Z,6.37
2022-12-25T16:48:25.703Z,5.33
2022-12-25T16:50:53.190Z,5.33
2022-12-25T16:53:20.712Z,5.40
2022-12-25T16:55:49.640Z,5.00
2022-12-25T16:58:17.238Z,4.73
2022-12-25T17:00:49.282Z,4.77
2022-12-25T17:03:17.442Z,3.87
2022-12-25T17:05:45.028Z,4.77
2022-12-25T17:08:12.621Z,5.40
2022-12-25T17:10:40.149Z,5.60
2022-12-25T17:13:09.197Z,4.37
2022-12-25T17:15:37.848Z,4.83
2022-12-25T17:18:05.597Z,3.90
2022-12-25T17:20:33.131Z,4.57
2022-12-25T17:23:00.557Z,3.33
2022-12-25T17:25:28.416Z,4.50
2022-12-25T17:27:55.938Z,4.33
2022-12-25T17:30:24.790Z,2.10
2022-12-25T17:32:52.309Z,6.27
2022-12-25T17:35:21.358Z,3.60
2022-12-25T17:37:49.305Z,5.13
2022-12-25T17:40:17.970Z,4.17
2022-12-25T17:42:45.509Z,5.27
2022-12-25T17:45:13.095Z,5.50
2022-12-25T17:47:41.911Z,2.33
2022-12-25T17:50:09.752Z,3.90
2022-12-25T17:52:37.337Z,4.70
2022-12-25T17:55:05.880Z,6.13
2022-12-25T17:57:33.503Z,5.70
2022-12-25T18:00:00.988Z,4.73
2022-12-25T18:02:29.887Z,5.20
2022-12-25T18:04:59.244Z,2.90
2022-12-25T18:07:26.758Z,4.50
2022-12-25T18:09:54.430Z,4.43
2022-12-25T18:12:23.280Z,5.83
2022-12-25T18:14:51.030Z,4.70
2022-12-25T18:17:18.529Z,5.47
2022-12-25T18:19:46.071Z,5.23
2022-12-25T18:22:15.097Z,5.97
2022-12-25T18:24:42.912Z,3.50
2022-12-25T18:27:10.419Z,5.77
2022-12-25T18:29:37.974Z,2.40
2022-12-25T18:32:06.289Z,5.07
2022-12-25T18:34:34.135Z,4.67
2022-12-25T18:37:03.580Z,5.37
2022-12-25T18:39:33.922Z,4.03
2022-12-25T18:42:19.104Z,4.80
2022-12-25T18:44:46.659Z,3.97
2022-12-25T18:47:14.173Z,1.83
2022-12-25T18:49:41.704Z,5.13
2022-12-25T18:52:47.361Z,6.00
2022-12-25T18:54:58.176Z,2.20
2022-12-25T18:57:25.786Z,4.57
2022-12-25T18:59:53.551Z,4.77
2022-12-25T19:02:21.202Z,4.73
2022-12-25T19:04:48.703Z,3.70
2022-12-25T19:07:16.313Z,5.03
2022-12-25T19:09:43.844Z,4.37
2022-12-25T19:12:12.773Z,4.63
2022-12-25T19:14:47.591Z,4.40
2022-12-25T19:17:15.860Z,4.67
2022-12-25T19:19:43.425Z,4.20
2022-12-25T19:22:11.215Z,3.87
2022-12-25T19:24:38.731Z,3.40
2022-12-25T19:27:07.625Z,5.03
2022-12-25T19:29:36.750Z,1.90
2022-12-25T19:32:04.597Z,3.80
2022-12-25T19:34:32.200Z,5.10
2022-12-25T19:36:59.710Z,4.33
2022-12-25T19:39:27.254Z,3.97
2022-12-25T19:41:54.849Z,4.23
2022-12-25T19:44:22.393Z,4.53
2022-12-25T19:46:52.925Z,3.70
2022-12-25T19:49:20.508Z,4.80
2022-12-25T19:51:48.717Z,4.43
2022-12-25T19:54:20.054Z,3.17
2022-12-25T19:56:48.389Z,4.27
2022-12-25T19:59:16.593Z,3.93
2022-12-25T20:01:44.387Z,4.13
2022-12-25T20:04:13.425Z,5.33
2022-12-25T20:06:42.557Z,4.53
2022-12-25T20:09:13.620Z,3.60
2022-12-25T20:11:41.784Z,4.37
2022-12-25T20:14:11.484Z,5.40
2022-12-25T20:16:40.311Z,0.10
2022-12-25T20:19:08.420Z,0.10
2022-12-25T20:21:37.262Z,0.87
2022-12-25T20:24:06.073Z,0.07
2022-12-25T20:26:33.569Z,0.77
2022-12-25T20:29:01.264Z,0.10
2022-12-25T20:31:31.164Z,0.30
2022-12-25T20:34:00.037Z,0.10
2022-12-25T20:36:32.815Z,0.10
2022-12-25T20:39:06.335Z,0.33
2022-12-25T20:41:33.890Z,0.10
2022-12-25T20:44:01.856Z,0.50
2022-12-25T20:46:29.536Z,0.10
2022-12-25T20:48:57.302Z,0.30
2022-12-25T20:51:26.851Z,2.10
2022-12-25T20:53:55.754Z,1.40
2022-12-25T20:56:27.123Z,0.30
2022-12-25T20:58:55.501Z,0.40
2022-12-25T21:01:23.596Z,1.13
2022-12-25T21:03:51.583Z,0.27
2022-12-25T21:06:19.396Z,0.20
2022-12-25T21:08:48.406Z,0.10
2022-12-25T21:11:17.569Z,0.37
2022-12-25T21:13:46.822Z,0.20
2022-12-25T21:16:18.366Z,0.53
2022-12-25T21:18:46.470Z,0.10
2022-12-25T21:21:14.099Z,0.20
2022-12-25T21:23:42.005Z,0.33
2022-12-25T21:26:11.708Z,0.27
2022-12-25T21:28:39.343Z,0.53
2022-12-25T21:31:10.359Z,0.10
2022-12-25T21:34:01.490Z,0.30
2022-12-25T21:36:31.694Z,0.70
2022-12-25T21:39:02.110Z,0.10
2022-12-25T21:41:31.049Z,0.07
2022-12-25T21:43:58.744Z,1.13
2022-12-25T21:46:28.623Z,0.50
2022-12-25T21:48:56.717Z,0.30
2022-12-25T21:51:44.244Z,0.10
2022-12-25T21:54:13.020Z,0.23
2022-12-25T21:56:44.981Z,0.10
2022-12-25T21:59:15.118Z,1.07
2022-12-25T22:01:44.462Z,0.17
2022-12-25T22:04:13.704Z,0.10
2022-12-25T22:06:59.431Z,0.10
2022-12-25T22:09:27.479Z,0.00
2022-12-25T22:12:12.906Z,0.30
2022-12-25T22:14:56.706Z,0.10
2022-12-25T22:17:45.557Z,0.20
2022-12-25T22:20:15.869Z,0.20
2022-12-25T22:22:43.735Z,0.13
2022-12-25T22:25:11.733Z,0.20
2022-12-25T22:27:41.234Z,0.10
2022-12-25T22:30:10.459Z,0.20
2022-12-25T22:32:40.004Z,0.10
2022-12-25T22:35:08.901Z,0.20
2022-12-25T22:37:36.894Z,0.30
2022-12-25T22:40:05.916Z,0.10
2022-12-25T22:42:33.741Z,2.40
2022-12-25T22:45:01.234Z,0.10
2022-12-25T22:47:28.708Z,0.20
2022-12-25T22:49:57.527Z,0.90
2022-12-25T22:52:25.111Z,0.10
2022-12-25T22:54:52.647Z,0.03
2022-12-25T22:57:20.222Z,0.10
2022-12-25T22:59:47.763Z,0.10
2022-12-25T23:02:15.531Z,0.10
2022-12-25T23:04:43.213Z,0.00
2022-12-25T23:07:14.274Z,0.20
2022-12-25T23:09:41.971Z,0.10
2022-12-25T23:12:30.326Z,0.10
2022-12-25T23:14:57.459Z,0.17
2022-12-25T23:17:43.225Z,0.00
2022-12-25T23:20:31.397Z,0.03
2022-12-25T23:23:26.201Z,0.03
2022-12-25T23:26:08.599Z,0.30
2022-12-25T23:28:53.920Z,0.20
2022-12-25T23:31:24.849Z,0.67
2022-12-25T23:33:52.468Z,0.00
2022-12-25T23:36:19.972Z,0.07
2022-12-25T23:38:48.902Z,0.10
2022-12-25T23:41:16.428Z,0.07
2022-12-25T23:43:43.947Z,0.10
2022-12-25T23:46:11.682Z,0.60
2022-12-25T23:48:39.393Z,1.50
2022-12-25T23:51:08.798Z,0.00
2022-12-25T23:53:36.923Z,0.00
2022-12-25T23:56:06.656Z,1.30
2022-12-25T23:58:34.303Z,0.10
